Time;durP1;ratioP1;P1;durP2;ratioP2;P2;SDS_P1;SDS_P2;PMS_P1;PMS_P2;Temp;Humidity;BMP_temperature;BMP_pressure;BME280_temperature;BME280_humidity;BME280_pressure;Samples;Min_cycle;Max_cycle;Signal;HPM_P1;HPM_P2
2022/02/20 00:01:08;;;;;;;17.15;9.10;;;;;;;2.83;64.80;93535.19;5047229;28;20029;-41
2022/02/20 00:03:34;;;;;;;55.58;28.88;;;;;;;2.99;64.70;93537.16;5047030;28;20029;-41
2022/02/20 00:06:00;;;;;;;49.10;27.67;;;;;;;2.95;64.86;93528.47;5049176;28;20032;-39
2022/02/20 00:08:26;;;;;;;53.88;27.65;;;;;;;3.03;64.84;93556.72;5050541;28;20029;-40
2022/02/20 00:10:51;;;;;;;43.05;23.55;;;;;;;3.06;63.52;93555.00;5050252;28;20499;-40
2022/02/20 00:13:17;;;;;;;45.17;25.08;;;;;;;3.07;63.60;93559.94;5050270;28;20029;-39
2022/02/20 00:15:43;;;;;;;50.03;26.35;;;;;;;2.74;64.83;93554.53;5050081;28;20037;-39
2022/02/20 00:18:08;;;;;;;38.95;21.77;;;;;;;2.69;64.50;93557.22;5050235;28;20417;-40
2022/02/20 00:20:34;;;;;;;31.75;17.58;;;;;;;2.69;65.39;93552.53;5050430;28;20033;-40
2022/02/20 00:23:02;;;;;;;23.42;13.75;;;;;;;2.66;64.72;93558.25;5050070;28;20045;-40
2022/02/20 00:25:31;;;;;;;25.42;15.20;;;;;;;2.77;64.29;93558.25;5050130;28;20574;-40
2022/02/20 00:27:57;;;;;;;37.60;17.15;;;;;;;2.83;64.00;93550.81;5049008;28;20545;-39
2022/02/20 00:30:23;;;;;;;29.75;16.20;;;;;;;2.79;63.98;93540.16;5049493;28;20024;-40
2022/02/20 00:32:48;;;;;;;25.08;14.40;;;;;;;2.82;63.95;93541.88;5049960;28;20044;-39
2022/02/20 00:35:14;;;;;;;27.55;14.85;;;;;;;2.86;64.14;93542.38;5049897;28;20048;-40
2022/02/20 00:37:39;;;;;;;28.20;14.10;;;;;;;2.83;63.26;93540.66;5050263;28;20029;-41
2022/02/20 00:40:05;;;;;;;23.38;13.93;;;;;;;2.87;64.52;93535.69;5049381;27;20025;-41
2022/02/20 00:42:31;;;;;;;22.73;13.50;;;;;;;2.57;65.11;93529.25;5050074;28;20025;-41
2022/02/20 00:44:56;;;;;;;21.58;12.38;;;;;;;2.53;65.80;93526.03;5049718;28;20048;-40
2022/02/20 00:47:22;;;;;;;29.30;13.30;;;;;;;2.58;64.97;93530.72;5049760;28;20025;-41
2022/02/20 00:49:47;;;;;;;31.10;14.07;;;;;;;2.48;65.29;93529.47;5049785;28;20040;-40
2022/02/20 00:52:13;;;;;;;20.38;12.10;;;;;;;2.73;64.74;93525.75;5049632;28;20029;-40
2022/02/20 00:54:38;;;;;;;22.58;13.20;;;;;;;2.78;64.79;93521.56;5049769;28;20028;-41
2022/02/20 00:57:03;;;;;;;23.63;13.63;;;;;;;2.74;65.39;93527.25;5049934;28;20485;-41
2022/02/20 00:59:29;;;;;;;30.55;16.52;;;;;;;2.84;64.42;93533.19;5049868;28;20494;-41
2022/02/20 01:01:54;;;;;;;40.22;19.75;;;;;;;2.67;64.91;93532.44;5049870;28;20550;-41
2022/02/20 01:04:20;;;;;;;33.35;18.67;;;;;;;2.76;64.17;93540.38;5049407;28;20025;-41
2022/02/20 01:06:45;;;;;;;45.42;25.05;;;;;;;2.80;64.19;93541.63;5049754;28;20025;-41
2022/02/20 01:09:11;;;;;;;50.85;25.42;;;;;;;2.64;64.52;93544.38;5049777;28;20421;-40
2022/02/20 01:11:36;;;;;;;45.72;23.55;;;;;;;2.03;67.14;93533.38;5049351;28;20037;-40
2022/02/20 01:14:01;;;;;;;40.65;22.58;;;;;;;1.88;67.74;93511.06;5048629;28;20030;-41
2022/02/20 01:16:27;;;;;;;28.05;14.82;;;;;;;2.00;67.35;93534.34;5048717;28;20128;-41
2022/02/20 01:18:52;;;;;;;23.23;13.55;;;;;;;2.08;67.63;93535.38;5049429;28;20048;-41
2022/02/20 01:21:18;;;;;;;25.85;15.50;;;;;;;2.30;67.34;93532.69;5049279;28;20024;-41
2022/02/20 01:23:43;;;;;;;24.38;14.52;;;;;;;2.44;67.22;93525.50;5049388;28;20025;-41
2022/02/20 01:26:09;;;;;;;48.72;17.60;;;;;;;2.22;66.38;93509.88;5049076;28;20511;-40
2022/02/20 01:28:34;;;;;;;20.95;12.00;;;;;;;2.08;67.17;93495.25;5049080;28;20033;-41
2022/02/20 01:30:59;;;;;;;24.25;13.45;;;;;;;2.23;67.25;93512.13;5049126;28;20082;-41
2022/02/20 01:33:25;;;;;;;29.17;15.13;;;;;;;2.38;67.86;93516.59;5049036;28;20054;-41
2022/02/20 01:35:50;;;;;;;27.65;16.98;;;;;;;2.38;67.60;93517.34;5049006;28;20090;-40
2022/02/20 01:38:17;;;;;;;35.63;19.02;;;;;;;2.37;67.04;93515.84;5048963;28;20032;-41
2022/02/20 01:40:44;;;;;;;28.73;16.23;;;;;;;2.10;67.82;93514.56;5048910;27;20021;-41
2022/02/20 01:43:12;;;;;;;26.65;16.08;;;;;;;2.16;66.98;93517.31;5049120;28;20033;-40
2022/02/20 01:45:39;;;;;;;28.80;15.75;;;;;;;2.39;65.81;93528.97;5049006;28;20036;-39
2022/02/20 01:48:05;;;;;;;30.88;18.80;;;;;;;2.33;66.06;93530.94;5048738;28;20227;-41
2022/02/20 01:50:30;;;;;;;38.13;20.20;;;;;;;2.33;66.62;93534.44;5049011;28;20163;-41
2022/02/20 01:52:56;;;;;;;29.23;17.27;;;;;;;2.44;66.33;93539.13;5043590;28;20482;-41
2022/02/20 01:55:22;;;;;;;27.52;16.73;;;;;;;2.44;66.23;93534.44;5048231;28;20081;-38
2022/02/20 01:57:47;;;;;;;29.40;16.50;;;;;;;2.22;67.01;93526.22;5048722;28;20029;-39
2022/02/20 02:00:16;;;;;;;32.63;16.95;;;;;;;2.02;67.73;93502.69;5047686;28;20244;-38
2022/02/20 02:02:42;;;;;;;24.27;15.13;;;;;;;2.16;67.49;93520.78;5048902;28;20472;-38
2022/02/20 02:05:08;;;;;;;22.80;15.52;;;;;;;2.30;67.02;93532.69;5048632;28;20044;-38
2022/02/20 02:07:33;;;;;;;36.65;20.20;;;;;;;2.48;66.87;93534.19;5048451;28;20036;-39
2022/02/20 02:09:59;;;;;;;41.03;21.20;;;;;;;2.33;66.59;93523.53;5047591;28;20128;-38
2022/02/20 02:12:25;;;;;;;32.10;21.10;;;;;;;2.39;66.54;93524.28;5048630;28;20029;-39
2022/02/20 02:15:17;;;;;;;49.55;31.25;;;;;;;2.40;65.78;93519.56;5048629;28;20021;-39
2022/02/20 02:17:43;;;;;;;45.95;25.05;;;;;;;2.39;66.17;93524.28;5048444;28;20076;-41
2022/02/20 02:20:09;;;;;;;37.08;20.17;;;;;;;2.43;66.15;93521.28;5048673;28;20025;-41
2022/02/20 02:22:35;;;;;;;29.25;18.65;;;;;;;2.51;66.38;93531.22;5048166;28;20029;-39
2022/02/20 02:25:01;;;;;;;33.45;19.27;;;;;;;2.29;66.93;93520.31;5048227;28;20089;-40
2022/02/20 02:27:27;;;;;;;32.42;18.50;;;;;;;1.61;68.77;93506.25;5048135;28;20079;-41
2022/02/20 02:29:53;;;;;;;21.38;12.10;;;;;;;1.44;68.90;93498.78;5048396;28;20048;-40
2022/02/20 02:32:19;;;;;;;17.40;10.93;;;;;;;1.75;69.02;93516.97;5048142;28;20029;-41
2022/02/20 02:34:46;;;;;;;23.98;12.45;;;;;;;1.61;69.13;93506.25;5048335;28;20029;-41
2022/02/20 02:37:12;;;;;;;27.85;12.18;;;;;;;1.44;70.31;93496.06;5048403;28;20108;-41
2022/02/20 02:39:39;;;;;;;23.17;11.68;;;;;;;1.57;70.19;93492.91;5048345;28;20052;-41
2022/02/20 02:42:05;;;;;;;18.88;10.88;;;;;;;1.73;69.76;93494.19;5047148;27;20841;-41
2022/02/20 02:44:31;;;;;;;14.90;8.60;;;;;;;1.81;69.65;93485.06;5047331;28;20029;-42
2022/02/20 02:46:56;;;;;;;11.13;7.32;;;;;;;1.91;68.88;93480.13;5048143;28;20021;-42
2022/02/20 02:49:22;;;;;;;115.45;50.17;;;;;;;2.04;68.11;93480.38;5047918;28;20052;-42
2022/02/20 02:51:48;;;;;;;28.20;14.02;;;;;;;2.13;67.49;93474.72;5048067;28;20028;-42
2022/02/20 02:54:17;;;;;;;31.95;16.45;;;;;;;2.14;67.08;93455.16;5048066;28;20021;-42
2022/02/20 02:56:46;;;;;;;31.10;14.85;;;;;;;2.10;67.29;93438.31;5047710;28;20104;-42
2022/02/20 02:59:13;;;;;;;38.05;20.00;;;;;;;2.06;67.43;93464.31;5048029;28;20028;-42
2022/02/20 03:01:38;;;;;;;41.38;21.20;;;;;;;2.05;67.73;93455.41;5047725;28;20506;-42
2022/02/20 03:04:04;;;;;;;33.13;18.50;;;;;;;1.99;68.69;93462.09;5047434;28;20033;-42
2022/02/20 03:06:29;;;;;;;28.95;15.70;;;;;;;2.02;68.15;93459.09;5047882;28;20022;-42
2022/02/20 03:08:55;;;;;;;38.70;17.33;;;;;;;2.07;68.47;93442.03;5047588;28;20033;-42
2022/02/20 03:11:20;;;;;;;19.63;13.65;;;;;;;1.71;69.45;93434.06;5047827;28;20033;-42
2022/02/20 03:13:46;;;;;;;23.33;12.25;;;;;;;1.73;69.92;93432.34;5047466;28;20057;-42
2022/02/20 03:16:11;;;;;;;21.60;12.70;;;;;;;1.82;69.43;93451.16;5047740;28;20028;-42
2022/02/20 03:18:37;;;;;;;24.52;14.90;;;;;;;1.84;69.94;93475.19;5047479;28;20025;-42
2022/02/20 03:21:06;;;;;;;33.25;16.92;;;;;;;2.06;68.53;93484.13;5047689;28;20028;-42
2022/02/20 03:23:32;;;;;;;43.40;24.67;;;;;;;2.07;68.29;93471.25;5047640;28;20024;-41
2022/02/20 03:25:57;;;;;;;34.65;18.85;;;;;;;1.89;69.51;93458.09;5046037;28;20028;-41
2022/02/20 03:28:23;;;;;;;40.15;19.98;;;;;;;1.93;70.19;93453.91;5047401;28;20032;-42
2022/02/20 03:30:49;;;;;;;29.13;17.33;;;;;;;2.03;70.05;93460.59;5047624;28;20459;-41
2022/02/20 03:33:15;;;;;;;27.63;15.18;;;;;;;2.13;69.11;93461.84;5047512;28;20474;-42
2022/02/20 03:35:41;;;;;;;25.88;14.65;;;;;;;2.24;68.84;93464.59;5047521;28;20041;-42
2022/02/20 03:38:06;;;;;;;30.05;16.58;;;;;;;2.39;68.69;93469.03;5047207;28;20033;-42
2022/02/20 03:40:32;;;;;;;30.30;18.90;;;;;;;2.45;67.69;93462.34;5046192;27;20025;-42
2022/02/20 03:42:59;;;;;;;39.28;22.08;;;;;;;2.50;67.27;93445.25;5047132;28;20033;-42
2022/02/20 03:45:25;;;;;;;36.85;22.35;;;;;;;2.55;66.97;93428.16;5046823;28;20103;-41
2022/02/20 03:47:51;;;;;;;34.40;21.40;;;;;;;2.48;67.59;93425.94;5047311;28;20033;-41
2022/02/20 03:50:17;;;;;;;50.30;26.65;;;;;;;2.44;68.89;93441.78;5047278;28;20029;-41
2022/02/20 03:52:42;;;;;;;62.35;33.20;;;;;;;2.36;68.73;93443.50;5047214;28;20029;-41
2022/02/20 03:55:09;;;;;;;60.70;31.83;;;;;;;2.46;67.70;93452.19;5047310;28;20021;-41
2022/02/20 03:57:36;;;;;;;40.92;23.25;;;;;;;2.49;66.98;93432.84;5047164;28;20061;-41
2022/02/20 04:00:12;;;;;;;24.52;13.13;;;;;;;2.59;66.93;93450.44;5046799;28;20107;-42
2022/02/20 04:02:38;;;;;;;28.02;17.35;;;;;;;2.61;66.92;93447.97;5047245;28;20149;-41
2022/02/20 04:05:14;;;;;;;31.23;18.00;;;;;;;2.49;68.25;93456.66;5047132;28;20474;-41
2022/02/20 04:07:40;;;;;;;59.22;28.67;;;;;;;2.33;68.35;93430.91;5045856;28;20033;-41
2022/02/20 04:10:09;;;;;;;105.97;59.63;;;;;;;1.91;70.32;93437.31;5046783;28;20032;-41
2022/02/20 04:12:34;;;;;;;87.20;47.00;;;;;;;1.79;70.52;93435.81;5046779;28;20021;-41
2022/02/20 04:15:00;;;;;;;25.98;15.43;;;;;;;2.04;69.99;93467.53;5046846;28;20025;-41
2022/02/20 04:17:26;;;;;;;40.70;21.20;;;;;;;2.11;70.71;93466.28;5047091;28;20516;-41
2022/02/20 04:19:52;;;;;;;36.95;19.85;;;;;;;2.21;70.09;93471.00;5047270;28;20066;-41
2022/02/20 04:22:18;;;;;;;36.78;21.20;;;;;;;2.21;70.19;93459.34;5046618;28;20032;-41
2022/02/20 04:24:43;;;;;;;40.47;20.20;;;;;;;2.53;69.38;93487.13;5046865;28;20029;-41
2022/02/20 04:27:09;;;;;;;36.88;20.23;;;;;;;2.33;69.96;93471.75;5046644;28;20057;-41
2022/02/20 04:29:35;;;;;;;33.40;18.02;;;;;;;2.55;69.17;93490.09;5046875;28;20097;-41
2022/02/20 04:32:01;;;;;;;34.95;18.13;;;;;;;2.56;68.96;93497.00;5046695;28;20481;-41
2022/02/20 04:34:26;;;;;;;47.60;25.48;;;;;;;2.30;69.58;93505.44;5046738;28;20017;-41
2022/02/20 04:36:52;;;;;;;39.53;20.50;;;;;;;2.43;69.31;93527.50;5046870;28;20102;-41
2022/02/20 04:39:18;;;;;;;31.85;16.92;;;;;;;2.48;69.51;93543.09;5046712;28;20065;-41
2022/02/20 04:41:43;;;;;;;31.23;15.90;;;;;;;2.62;68.47;93538.66;5046144;27;20029;-41
2022/02/20 04:44:09;;;;;;;25.73;13.82;;;;;;;2.42;69.13;93517.09;5046380;28;20029;-41
2022/02/20 04:46:35;;;;;;;21.50;11.65;;;;;;;2.27;69.76;93517.34;5046584;28;20053;-41
2022/02/20 04:49:06;;;;;;;35.10;16.80;;;;;;;2.48;70.22;93539.63;5045347;28;20445;-41
2022/02/20 04:51:33;;;;;;;42.42;23.65;;;;;;;2.28;70.18;93529.69;5046587;28;20421;-42
2022/02/20 04:53:59;;;;;;;43.35;23.13;;;;;;;2.58;68.98;93533.44;5049631;28;20494;-41
2022/02/20 04:56:24;;;;;;;34.10;19.20;;;;;;;2.70;68.56;93540.41;5049516;28;20509;-42
2022/02/20 04:58:50;;;;;;;47.85;22.42;;;;;;;2.67;68.78;93552.28;5049891;28;20025;-41
2022/02/20 05:01:15;;;;;;;39.30;22.92;;;;;;;2.68;69.14;93553.78;5049835;28;20474;-41
2022/02/20 05:03:41;;;;;;;69.85;33.42;;;;;;;2.47;69.62;93547.06;5049511;28;20169;-41
2022/02/20 05:06:06;;;;;;;51.63;25.67;;;;;;;2.66;68.36;93552.78;5049763;28;20021;-41
2022/02/20 05:08:32;;;;;;;57.97;26.73;;;;;;;2.71;68.20;93563.69;5049451;28;20489;-42
2022/02/20 05:10:57;;;;;;;62.83;28.73;;;;;;;2.81;68.38;93575.84;5049730;28;20025;-42
2022/02/20 05:13:23;;;;;;;57.63;28.42;;;;;;;2.79;68.06;93572.88;5049398;28;20039;-41
2022/02/20 05:15:48;;;;;;;59.25;27.35;;;;;;;2.70;68.97;93581.28;5049282;28;20025;-41
2022/02/20 05:18:14;;;;;;;69.95;40.35;;;;;;;2.34;68.58;93554.97;5049561;28;20039;-42
2022/02/20 05:20:40;;;;;;;55.50;28.55;;;;;;;2.58;68.75;93574.31;5049233;28;20025;-41
2022/02/20 05:23:05;;;;;;;50.88;26.50;;;;;;;2.59;68.52;93570.38;5049083;28;20040;-42
2022/02/20 05:25:31;;;;;;;43.15;21.95;;;;;;;2.67;68.35;93567.88;5049606;28;20028;-42
2022/02/20 05:27:57;;;;;;;40.90;22.30;;;;;;;2.52;69.04;93540.88;5048537;28;20047;-41
2022/02/20 05:30:22;;;;;;;47.00;25.67;;;;;;;2.55;69.50;93550.06;5048764;28;20029;-41
2022/02/20 05:32:48;;;;;;;44.47;26.25;;;;;;;2.72;68.98;93551.56;5049386;28;20032;-42
2022/02/20 05:35:13;;;;;;;47.35;27.63;;;;;;;2.70;69.92;93542.38;5049062;28;20497;-41
2022/02/20 05:37:43;;;;;;;54.08;32.25;;;;;;;2.71;68.67;93528.25;5049029;28;20029;-41
2022/02/20 05:40:11;;;;;;;50.50;28.77;;;;;;;2.90;69.61;93529.22;5048907;27;20025;-40
2022/02/20 05:42:36;;;;;;;44.25;24.65;;;;;;;3.04;68.22;93541.88;5049135;28;20052;-41
2022/02/20 05:45:03;;;;;;;40.45;20.38;;;;;;;3.10;67.50;93544.56;5049105;28;20074;-41
2022/02/20 05:47:28;;;;;;;50.67;30.05;;;;;;;2.87;67.78;93549.31;5048786;28;20494;-42
2022/02/20 05:49:53;;;;;;;29.13;15.93;;;;;;;3.03;66.83;93547.81;5048848;28;20238;-41
2022/02/20 05:52:19;;;;;;;38.55;21.48;;;;;;;2.74;68.93;93545.59;5048539;28;20033;-41
2022/02/20 05:54:45;;;;;;;58.65;34.80;;;;;;;2.68;69.34;93553.78;5048972;28;20052;-41
2022/02/20 05:57:10;;;;;;;53.78;31.25;;;;;;;2.77;69.41;93564.41;5049152;28;20707;-41
2022/02/20 05:59:36;;;;;;;55.17;31.67;;;;;;;2.78;69.47;93579.56;5048595;28;20475;-41
2022/02/20 06:02:01;;;;;;;50.70;28.65;;;;;;;2.79;69.38;93585.75;5048710;28;20025;-41
2022/02/20 06:04:27;;;;;;;49.13;29.17;;;;;;;2.99;68.78;93605.34;5048304;28;20036;-41
2022/02/20 06:06:52;;;;;;;69.18;38.00;;;;;;;2.98;67.67;93579.31;5048226;28;20025;-40
2022/02/20 06:09:18;;;;;;;60.88;35.17;;;;;;;3.07;68.37;93603.59;5047991;28;20032;-41
2022/02/20 06:11:43;;;;;;;80.22;41.20;;;;;;;2.99;68.24;93594.41;5048713;28;20410;-40
2022/02/20 06:14:08;;;;;;;45.40;25.85;;;;;;;2.78;69.57;93584.25;5048771;28;20517;-40
2022/02/20 06:16:34;;;;;;;52.80;24.98;;;;;;;2.90;69.78;93594.66;5048355;28;20029;-39
2022/02/20 06:18:59;;;;;;;52.72;29.45;;;;;;;2.94;69.99;93586.25;5048380;28;20024;-41
2022/02/20 06:21:25;;;;;;;90.80;46.88;;;;;;;2.93;70.41;93582.03;5048615;28;20037;-41
2022/02/20 06:23:50;;;;;;;102.13;51.72;;;;;;;3.08;69.17;93583.25;5048484;28;20387;-40
2022/02/20 06:26:15;;;;;;;133.75;59.63;;;;;;;3.40;69.26;93580.25;5048225;28;20446;-40
2022/02/20 06:28:41;;;;;;;158.55;77.30;;;;;;;3.51;66.73;93564.59;5048563;28;20087;-41
2022/02/20 06:31:06;;;;;;;108.43;53.72;;;;;;;3.51;67.26;93570.03;5048183;28;20025;-41
2022/02/20 06:33:32;;;;;;;132.98;66.40;;;;;;;3.64;67.88;93580.44;5048513;28;20020;-40
2022/02/20 06:35:57;;;;;;;287.25;149.00;;;;;;;3.67;67.59;93576.72;5048037;28;20056;-40
2022/02/20 06:38:22;;;;;;;62.78;38.55;;;;;;;3.68;66.54;93576.19;5048016;28;20064;-41
2022/02/20 06:40:48;;;;;;;48.83;26.05;;;;;;;3.79;66.46;93569.97;5047928;28;20036;-41
2022/02/20 06:43:14;;;;;;;35.13;18.13;;;;;;;3.75;65.65;93547.63;5047953;28;20036;-41
2022/02/20 06:45:39;;;;;;;57.55;30.73;;;;;;;3.85;65.37;93527.00;5046967;28;20029;-41
2022/02/20 06:48:05;;;;;;;52.60;28.90;;;;;;;3.84;66.75;93530.97;5047411;28;20036;-41
2022/02/20 06:50:30;;;;;;;78.32;39.45;;;;;;;3.82;67.86;93525.28;5048199;28;20067;-42
2022/02/20 06:52:56;;;;;;;75.10;39.67;;;;;;;4.05;66.59;93534.84;5047891;28;20546;-42
2022/02/20 06:55:22;;;;;;;84.70;46.35;;;;;;;4.10;66.86;93519.66;5047939;28;20028;-42
2022/02/20 06:57:47;;;;;;;77.22;40.50;;;;;;;4.05;67.64;93521.19;5047976;28;20029;-42
2022/02/20 07:00:13;;;;;;;74.35;40.47;;;;;;;4.31;67.83;93532.47;5047656;28;20025;-42
2022/02/20 07:02:39;;;;;;;71.88;38.60;;;;;;;4.50;67.35;93543.53;5047551;28;20029;-42
2022/02/20 07:05:07;;;;;;;69.95;37.50;;;;;;;4.72;67.48;93550.84;5047911;28;20025;-42
2022/02/20 07:07:33;;;;;;;99.55;51.05;;;;;;;4.87;66.74;93546.50;5043416;28;20086;-41
2022/02/20 07:09:59;;;;;;;88.82;49.63;;;;;;;5.02;66.28;93559.81;5025265;28;20033;-42
2022/02/20 07:12:25;;;;;;;87.95;48.80;;;;;;;4.94;65.79;93539.72;5025336;28;20105;-42
2022/02/20 07:14:51;;;;;;;80.70;44.75;;;;;;;4.92;64.12;93564.09;5024781;28;20547;-42
2022/02/20 07:17:17;;;;;;;81.57;47.50;;;;;;;4.73;65.67;93538.66;5025780;28;20025;-42
2022/02/20 07:19:42;;;;;;;84.97;50.95;;;;;;;5.01;65.41;93572.75;5025573;28;20414;-42
2022/02/20 07:22:08;;;;;;;47.15;26.67;;;;;;;5.19;65.66;93577.59;5025320;28;20034;-41
2022/02/20 07:24:33;;;;;;;40.50;23.13;;;;;;;5.13;66.45;93567.94;5025537;28;20029;-41
2022/02/20 07:26:59;;;;;;;45.20;25.63;;;;;;;5.14;66.73;93563.94;5024976;28;20053;-42
2022/02/20 07:29:24;;;;;;;34.15;20.08;;;;;;;5.12;67.85;93563.69;5035954;28;20032;-42
2022/02/20 07:31:49;;;;;;;29.63;18.55;;;;;;;5.27;65.43;93556.59;5045058;28;20029;-41
2022/02/20 07:34:15;;;;;;;26.08;16.33;;;;;;;5.53;64.18;93564.31;5044552;28;20021;-41
2022/02/20 07:36:43;;;;;;;25.42;13.07;;;;;;;5.87;63.10;93568.22;5044893;28;20106;-40
2022/02/20 07:39:09;;;;;;;18.27;10.48;;;;;;;6.15;61.98;93572.63;5044515;28;20048;-41
2022/02/20 07:41:36;;;;;;;22.75;11.38;;;;;;;6.42;61.37;93574.28;5038014;27;20147;-40
2022/02/20 07:44:02;;;;;;;17.60;10.88;;;;;;;6.66;58.86;93585.16;5032537;28;20133;-41
2022/02/20 07:46:28;;;;;;;19.25;11.18;;;;;;;6.60;57.59;93562.56;5034084;28;20779;-41
2022/02/20 07:48:57;;;;;;;21.45;11.65;;;;;;;6.56;57.80;93560.09;5034830;28;20134;-41
2022/02/20 07:51:23;;;;;;;17.38;9.98;;;;;;;6.76;56.83;93553.34;5038091;28;20029;-41
2022/02/20 07:53:49;;;;;;;17.13;10.35;;;;;;;6.77;55.95;93563.81;5029589;28;20025;-41
2022/02/20 07:56:16;;;;;;;21.27;10.68;;;;;;;7.09;55.78;93566.56;5035926;28;20039;-41
2022/02/20 07:58:42;;;;;;;20.98;11.38;;;;;;;7.38;55.54;93565.59;5034095;28;20418;-41
2022/02/20 08:01:07;;;;;;;17.70;10.95;;;;;;;7.53;53.95;93546.59;5031621;28;20021;-40
2022/02/20 08:03:33;;;;;;;15.90;10.27;;;;;;;7.57;53.46;93532.53;5033178;28;20068;-41
2022/02/20 08:06:00;;;;;;;16.77;10.40;;;;;;;7.54;52.37;93526.09;5029100;28;20034;-41
2022/02/20 08:08:26;;;;;;;17.45;9.60;;;;;;;7.86;52.57;93536.97;5033281;28;20033;-40
2022/02/20 08:10:51;;;;;;;18.73;11.38;;;;;;;8.17;52.79;93555.38;5036535;28;20036;-41
2022/02/20 08:13:17;;;;;;;18.60;10.07;;;;;;;8.52;52.42;93543.16;5032539;28;20025;-41
2022/02/20 08:15:42;;;;;;;16.02;9.68;;;;;;;8.88;51.88;93538.59;5033878;28;20450;-40
2022/02/20 08:18:08;;;;;;;22.70;10.52;;;;;;;9.18;50.50;93548.44;5031629;28;20033;-41
2022/02/20 08:20:33;;;;;;;18.33;12.30;;;;;;;9.51;49.29;93536.59;5034518;28;20589;-41
2022/02/20 08:22:59;;;;;;;28.70;14.95;;;;;;;9.55;47.85;93523.94;5031794;28;20097;-40
2022/02/20 08:25:24;;;;;;;53.55;36.83;;;;;;;9.69;47.04;93516.31;5033530;28;20025;-40
2022/02/20 08:27:50;;;;;;;25.45;17.00;;;;;;;10.66;43.33;93516.09;5037058;28;20580;-41
2022/02/20 08:30:16;;;;;;;20.58;12.18;;;;;;;11.31;41.71;93513.81;5038177;28;20039;-41
2022/02/20 08:32:41;;;;;;;18.60;12.95;;;;;;;11.76;39.85;93511.06;5036897;28;20459;-41
2022/02/20 08:35:08;;;;;;;23.85;13.85;;;;;;;12.54;40.15;93519.38;5037665;28;20021;-42
2022/02/20 08:37:36;;;;;;;29.20;15.73;;;;;;;13.42;38.25;93510.41;5036722;28;20105;-42
2022/02/20 08:40:02;;;;;;;21.80;12.95;;;;;;;14.35;36.44;93512.56;5037585;27;20558;-41
2022/02/20 08:42:28;;;;;;;25.88;16.35;;;;;;;14.98;34.22;93510.69;5039721;28;20025;-42
2022/02/20 08:44:54;;;;;;;21.73;15.50;;;;;;;15.59;33.89;93499.41;5041104;28;20085;-42
2022/02/20 08:47:19;;;;;;;19.90;13.55;;;;;;;16.47;31.12;93496.97;5035313;28;20022;-42
2022/02/20 08:49:45;;;;;;;22.70;15.23;;;;;;;16.53;29.72;93494.66;5034021;28;20096;-42
2022/02/20 08:52:11;;;;;;;25.58;14.85;;;;;;;16.62;30.34;93491.13;5040458;28;20040;-41
2022/02/20 08:54:37;;;;;;;24.38;16.77;;;;;;;16.64;31.28;93498.88;5035635;28;20029;-42
2022/02/20 08:57:07;;;;;;;24.90;14.20;;;;;;;16.39;31.35;93504.00;5036060;28;20027;-41
2022/02/20 08:59:33;;;;;;;19.63;11.00;;;;;;;16.29;32.08;93492.84;5035823;28;20655;-41
2022/02/20 09:01:59;;;;;;;19.73;10.98;;;;;;;15.86;31.65;93500.09;5036653;28;20420;-41
2022/02/20 09:04:24;;;;;;;24.42;13.48;;;;;;;14.85;32.58;93499.91;5037350;28;20029;-41
2022/02/20 09:06:51;;;;;;;26.40;15.18;;;;;;;15.32;33.79;93492.41;5034000;28;20414;-40
2022/02/20 09:09:16;;;;;;;18.40;10.82;;;;;;;15.54;33.45;93499.69;5046649;28;20031;-41
2022/02/20 09:11:43;;;;;;;22.65;9.70;;;;;;;15.30;32.25;93504.09;5042444;28;20108;-41
2022/02/20 09:14:09;;;;;;;16.40;8.93;;;;;;;14.84;33.89;93500.47;5036473;28;20653;-40
2022/02/20 09:16:34;;;;;;;13.40;9.02;;;;;;;14.43;33.84;93494.50;5034868;28;20112;-42
2022/02/20 09:19:03;;;;;;;15.77;9.23;;;;;;;13.84;34.38;93501.38;5031991;28;20025;-42
2022/02/20 09:21:30;;;;;;;16.17;9.05;;;;;;;13.04;35.47;93501.56;5038903;28;20676;-41
2022/02/20 09:23:56;;;;;;;70.43;24.40;;;;;;;13.42;37.58;93493.78;5036857;28;20037;-41
2022/02/20 09:26:21;;;;;;;24.80;14.93;;;;;;;13.32;37.26;93504.00;5032091;28;20491;-41
2022/02/20 09:28:47;;;;;;;29.40;11.95;;;;;;;13.59;36.79;93488.28;5038956;28;20029;-41
2022/02/20 09:31:12;;;;;;;18.05;8.18;;;;;;;14.00;35.21;93499.91;5033688;28;20025;-41
2022/02/20 09:33:39;;;;;;;18.90;9.30;;;;;;;14.28;34.52;93489.06;5034405;28;20010;-41
2022/02/20 09:36:06;;;;;;;13.68;8.20;;;;;;;14.42;35.01;93486.75;5029288;28;20029;-41
2022/02/20 09:38:32;;;;;;;10.48;6.72;;;;;;;14.70;32.58;93486.22;5045642;28;20413;-40
2022/02/20 09:40:57;;;;;;;13.38;8.18;;;;;;;15.42;33.17;93479.28;5045740;27;20032;-41
2022/02/20 09:43:23;;;;;;;30.70;18.00;;;;;;;16.15;31.25;93475.09;5039082;28;20486;-41
2022/02/20 09:45:51;;;;;;;17.75;7.55;;;;;;;16.68;30.25;93472.03;5035583;28;20017;-41
2022/02/20 09:48:16;;;;;;;12.90;6.55;;;;;;;17.15;31.35;93456.53;5037170;28;20025;-41
2022/02/20 09:50:44;;;;;;;18.67;7.13;;;;;;;17.60;29.61;93454.78;5039655;28;20025;-41
2022/02/20 09:53:10;;;;;;;10.23;6.25;;;;;;;17.30;28.47;93453.41;5031391;28;20033;-41
2022/02/20 09:55:36;;;;;;;9.70;6.35;;;;;;;17.77;29.63;93451.75;5036667;28;20136;-41
2022/02/20 09:58:01;;;;;;;11.38;6.97;;;;;;;18.16;28.61;93449.47;5034954;28;20533;-40
2022/02/20 10:00:27;;;;;;;10.55;6.60;;;;;;;18.25;27.88;93450.72;5033764;28;20028;-40
2022/02/20 10:02:52;;;;;;;7.50;5.15;;;;;;;18.40;28.20;93439.88;5034032;28;20028;-41
2022/02/20 10:05:20;;;;;;;15.23;6.28;;;;;;;18.46;27.95;93439.53;5036554;28;20070;-41
2022/02/20 10:07:46;;;;;;;10.85;6.35;;;;;;;18.65;26.97;93422.59;5035200;28;20028;-41
2022/02/20 10:10:27;;;;;;;9.13;6.22;;;;;;;18.32;26.28;93427.44;5036012;28;20025;-41
2022/02/20 10:12:58;;;;;;;10.93;6.05;;;;;;;18.42;26.42;93434.41;5036304;28;20513;-41
2022/02/20 10:15:24;;;;;;;13.57;5.75;;;;;;;18.25;27.27;93433.94;5035113;28;20017;-41
2022/02/20 10:17:50;;;;;;;9.32;5.18;;;;;;;17.82;27.22;93425.53;5034670;28;20070;-41
2022/02/20 10:20:22;;;;;;;9.52;5.75;;;;;;;17.33;28.11;93420.78;5035907;28;20025;-41
2022/02/20 10:22:48;;;;;;;11.77;5.32;;;;;;;17.12;28.98;93417.94;5035323;28;20029;-41
2022/02/20 10:25:13;;;;;;;7.07;5.18;;;;;;;17.27;28.63;93412.75;5039890;28;20048;-41
2022/02/20 10:27:53;;;;;;;8.95;5.47;;;;;;;17.95;28.39;93419.44;5045814;28;20049;-41
2022/02/20 10:30:20;;;;;;;7.93;5.43;;;;;;;18.12;27.62;93419.19;5045763;28;20556;-41
2022/02/20 10:32:52;;;;;;;12.70;5.63;;;;;;;18.06;27.42;93409.69;5045663;28;20025;-41
2022/02/20 10:35:18;;;;;;;13.18;5.75;;;;;;;18.24;27.96;93408.06;5044810;28;20025;-41
2022/02/20 10:37:44;;;;;;;13.43;7.03;;;;;;;18.58;27.96;93406.78;5046091;28;20562;-41
2022/02/20 10:40:26;;;;;;;13.57;9.70;;;;;;;19.70;27.94;93401.13;5045537;27;20032;-41
2022/02/20 10:42:54;;;;;;;7.75;5.45;;;;;;;20.73;25.49;93388.16;5045920;28;20391;-41
2022/02/20 10:45:24;;;;;;;8.23;4.88;;;;;;;21.55;25.64;93383.53;5045599;28;20035;-41
2022/02/20 10:47:50;;;;;;;9.85;5.75;;;;;;;22.05;25.54;93374.16;5045429;28;20387;-41
2022/02/20 10:50:18;;;;;;;8.02;5.00;;;;;;;21.84;24.67;93378.78;5044459;28;20028;-41
2022/02/20 10:52:44;;;;;;;5.53;4.75;;;;;;;22.35;23.11;93367.97;5045473;28;20417;-41
2022/02/20 10:55:11;;;;;;;11.00;6.05;;;;;;;22.83;22.61;93372.44;5045585;28;20024;-41
2022/02/20 10:57:38;;;;;;;7.43;4.45;;;;;;;22.60;23.12;93373.47;5045789;28;20736;-41
2022/02/20 11:00:09;;;;;;;8.52;5.15;;;;;;;23.46;23.03;93375.34;5045609;28;20421;-41
2022/02/20 11:02:35;;;;;;;7.00;4.78;;;;;;;23.74;22.16;93370.97;5045199;28;20068;-42
2022/02/20 11:05:02;;;;;;;7.78;4.20;;;;;;;23.85;20.98;93364.41;5045130;28;20063;-41
2022/02/20 11:07:28;;;;;;;7.10;4.82;;;;;;;23.67;21.59;93366.47;5043441;28;20150;-41
2022/02/20 11:09:54;;;;;;;7.35;4.57;;;;;;;24.18;21.80;93358.09;5045604;28;20618;-41
2022/02/20 11:12:21;;;;;;;6.57;4.68;;;;;;;24.41;20.75;93335.81;5045081;28;20021;-42
2022/02/20 11:14:47;;;;;;;10.57;4.38;;;;;;;24.99;20.22;93345.94;5044164;28;20025;-41
2022/02/20 11:17:14;;;;;;;7.13;4.05;;;;;;;25.28;21.63;93342.06;5043833;28;20502;-42
2022/02/20 11:19:40;;;;;;;9.90;5.05;;;;;;;25.36;20.18;93336.75;5043893;28;20013;-42